sensor_id;sensor_type;location;lat;lon;timestamp;pressure;altitude;pressure_sealevel;temperature;humidity
70127;BME280;57491;42.694;23.314;2022-07-03T00:00:01;95523.53;;;23.14;60.16
70127;BME280;57491;42.694;23.314;2022-07-03T00:02:30;95519.53;;;23.12;60.28
70127;BME280;57491;42.694;23.314;2022-07-03T00:04:57;95525.09;;;23.10;60.11
70127;BME280;57491;42.694;23.314;2022-07-03T00:07:25;95534.84;;;23.05;59.73
70127;BME280;57491;42.694;23.314;2022-07-03T00:09:52;95537.53;;;23.10;60.08
70127;BME280;57491;42.694;23.314;2022-07-03T00:12:19;95534.88;;;23.10;60.12
70127;BME280;57491;42.694;23.314;2022-07-03T00:14:46;95534.88;;;23.10;60.48
70127;BME280;57491;42.694;23.314;2022-07-03T00:17:14;95526.25;;;22.98;60.40
70127;BME280;57491;42.694;23.314;2022-07-03T00:19:43;95531.56;;;22.98;60.72
70127;BME280;57491;42.694;23.314;2022-07-03T00:22:12;95511.03;;;22.72;61.32
70127;BME280;57491;42.694;23.314;2022-07-03T00:24:42;95513.47;;;22.73;61.16
70127;BME280;57491;42.694;23.314;2022-07-03T00:27:11;95534.25;;;22.64;61.82
70127;BME280;57491;42.694;23.314;2022-07-03T00:29:42;95518.19;;;22.54;62.04
70127;BME280;57491;42.694;23.314;2022-07-03T00:32:11;95527.78;;;22.60;61.93
70127;BME280;57491;42.694;23.314;2022-07-03T00:34:39;95522.91;;;22.52;62.01
70127;BME280;57491;42.694;23.314;2022-07-03T00:37:08;95478.03;;;22.29;62.48
70127;BME280;57491;42.694;23.314;2022-07-03T00:39:37;95516.56;;;22.53;64.26
70127;BME280;57491;42.694;23.314;2022-07-03T00:42:06;95495.63;;;22.35;64.52
70127;BME280;57491;42.694;23.314;2022-07-03T00:44:35;95513.84;;;22.48;64.22
70127;BME280;57491;42.694;23.314;2022-07-03T00:47:04;95510.00;;;22.39;65.43
70127;BME280;57491;42.694;23.314;2022-07-03T00:49:33;95515.63;;;22.26;65.74
70127;BME280;57491;42.694;23.314;2022-07-03T00:52:03;95516.75;;;22.13;66.36
70127;BME280;57491;42.694;23.314;2022-07-03T00:54:34;95512.88;;;22.04;66.73
70127;BME280;57491;42.694;23.314;2022-07-03T00:57:02;95506.47;;;21.89;67.36
70127;BME280;57491;42.694;23.314;2022-07-03T00:59:29;95508.00;;;21.85;67.56
70127;BME280;57491;42.694;23.314;2022-07-03T01:02:02;95498.69;;;21.82;67.58
70127;BME280;57491;42.694;23.314;2022-07-03T01:04:38;95507.13;;;21.79;67.69
70127;BME280;57491;42.694;23.314;2022-07-03T01:07:11;95482.16;;;21.75;67.59
70127;BME280;57491;42.694;23.314;2022-07-03T01:09:51;95499.03;;;21.86;67.58
70127;BME280;57491;42.694;23.314;2022-07-03T01:12:26;95495.13;;;21.88;67.38
70127;BME280;57491;42.694;23.314;2022-07-03T01:15:05;95497.75;;;21.88;67.38
70127;BME280;57491;42.694;23.314;2022-07-03T01:17:38;95496.44;;;21.74;67.84
70127;BME280;57491;42.694;23.314;2022-07-03T01:20:06;95497.56;;;21.61;68.33
70127;BME280;57491;42.694;23.314;2022-07-03T01:22:35;95495.84;;;21.55;68.81
70127;BME280;57491;42.694;23.314;2022-07-03T01:25:16;95500.81;;;21.52;68.85
70127;BME280;57491;42.694;23.314;2022-07-03T01:28:02;95497.81;;;21.48;69.03
70127;BME280;57491;42.694;23.314;2022-07-03T01:30:34;95487.81;;;21.50;68.83
70127;BME280;57491;42.694;23.314;2022-07-03T01:33:04;95491.44;;;21.61;68.69
70127;BME280;57491;42.694;23.314;2022-07-03T01:35:33;95489.69;;;21.66;68.48
70127;BME280;57491;42.694;23.314;2022-07-03T01:38:03;95486.31;;;21.71;68.01
70127;BME280;57491;42.694;23.314;2022-07-03T01:40:36;95492.41;;;21.71;68.48
70127;BME280;57491;42.694;23.314;2022-07-03T01:43:06;95485.19;;;21.67;67.97
70127;BME280;57491;42.694;23.314;2022-07-03T01:45:38;95489.13;;;21.64;68.18
70127;BME280;57491;42.694;23.314;2022-07-03T01:48:07;95409.41;;;21.04;68.50
70127;BME280;57491;42.694;23.314;2022-07-03T01:50:37;95491.06;;;21.41;68.76
70127;BME280;57491;42.694;23.314;2022-07-03T01:53:06;95504.06;;;21.42;69.22
70127;BME280;57491;42.694;23.314;2022-07-03T01:55:34;95502.94;;;21.38;69.45
70127;BME280;57491;42.694;23.314;2022-07-03T01:58:02;95508.44;;;21.36;69.20
70127;BME280;57491;42.694;23.314;2022-07-03T02:00:31;95498.78;;;21.30;69.37
70127;BME280;57491;42.694;23.314;2022-07-03T02:03:05;95487.56;;;21.23;69.61
70127;BME280;57491;42.694;23.314;2022-07-03T02:05:36;95497.31;;;21.23;69.86
70127;BME280;57491;42.694;23.314;2022-07-03T02:08:18;95499.16;;;21.22;69.79
70127;BME280;57491;42.694;23.314;2022-07-03T02:11:00;95498.94;;;21.24;69.92
70127;BME280;57491;42.694;23.314;2022-07-03T02:13:31;95494.69;;;21.23;69.80
70127;BME280;57491;42.694;23.314;2022-07-03T02:16:08;95488.25;;;21.19;69.95
70127;BME280;57491;42.694;23.314;2022-07-03T02:18:36;95499.97;;;21.23;69.70
70127;BME280;57491;42.694;23.314;2022-07-03T02:21:09;95496.31;;;21.24;69.78
70127;BME280;57491;42.694;23.314;2022-07-03T02:23:46;95495.72;;;21.22;69.47
70127;BME280;57491;42.694;23.314;2022-07-03T02:26:17;95498.94;;;21.24;69.37
70127;BME280;57491;42.694;23.314;2022-07-03T02:28:53;95500.31;;;21.26;69.36
70127;BME280;57491;42.694;23.314;2022-07-03T02:31:26;95497.91;;;21.25;69.48
70127;BME280;57491;42.694;23.314;2022-07-03T02:33:57;95489.72;;;21.26;69.17
70127;BME280;57491;42.694;23.314;2022-07-03T02:36:28;95510.44;;;21.29;69.20
70127;BME280;57491;42.694;23.314;2022-07-03T02:38:56;95502.25;;;21.31;69.21
70127;BME280;57491;42.694;23.314;2022-07-03T02:41:39;95504.75;;;21.38;68.97
70127;BME280;57491;42.694;23.314;2022-07-03T02:44:17;95508.31;;;21.43;68.49
70127;BME280;57491;42.694;23.314;2022-07-03T02:46:59;95502.31;;;21.48;68.79
70127;BME280;57491;42.694;23.314;2022-07-03T02:49:42;95484.75;;;21.42;68.15
70127;BME280;57491;42.694;23.314;2022-07-03T02:52:22;95504.81;;;21.54;68.18
70127;BME280;57491;42.694;23.314;2022-07-03T02:54:52;95516.19;;;21.55;67.95
70127;BME280;57491;42.694;23.314;2022-07-03T02:57:20;95515.06;;;21.51;68.37
70127;BME280;57491;42.694;23.314;2022-07-03T02:59:55;95514.63;;;21.42;68.47
70127;BME280;57491;42.694;23.314;2022-07-03T03:02:53;95521.50;;;21.55;68.18
70127;BME280;57491;42.694;23.314;2022-07-03T03:05:26;95512.41;;;21.51;68.23
70127;BME280;57491;42.694;23.314;2022-07-03T03:08:06;95515.06;;;21.51;68.08
70127;BME280;57491;42.694;23.314;2022-07-03T03:10:35;95522.84;;;21.57;68.06
70127;BME280;57491;42.694;23.314;2022-07-03T03:13:04;95519.97;;;21.59;68.05
70127;BME280;57491;42.694;23.314;2022-07-03T03:15:32;95525.59;;;21.62;67.69
70127;BME280;57491;42.694;23.314;2022-07-03T03:18:03;95528.50;;;21.61;67.73
70127;BME280;57491;42.694;23.314;2022-07-03T03:20:33;95528.72;;;21.59;67.95
70127;BME280;57491;42.694;23.314;2022-07-03T03:23:17;95528.63;;;21.54;68.21
70127;BME280;57491;42.694;23.314;2022-07-03T03:25:46;95531.50;;;21.53;68.21
70127;BME280;57491;42.694;23.314;2022-07-03T03:28:13;95530.34;;;21.60;67.85
70127;BME280;57491;42.694;23.314;2022-07-03T03:30:40;95537.88;;;21.68;67.64
70127;BME280;57491;42.694;23.314;2022-07-03T03:33:09;95537.41;;;21.71;67.36
70127;BME280;57491;42.694;23.314;2022-07-03T03:35:38;95516.13;;;21.66;66.91
70127;BME280;57491;42.694;23.314;2022-07-03T03:38:06;95506.03;;;21.63;66.81
70127;BME280;57491;42.694;23.314;2022-07-03T03:40:33;95530.31;;;21.89;66.48
70127;BME280;57491;42.694;23.314;2022-07-03T03:43:01;95525.50;;;21.86;66.45
70127;BME280;57491;42.694;23.314;2022-07-03T03:45:29;95528.91;;;21.98;65.75
70127;BME280;57491;42.694;23.314;2022-07-03T03:47:56;95533.84;;;22.06;65.42
70127;BME280;57491;42.694;23.314;2022-07-03T03:50:25;95521.16;;;22.08;65.43
70127;BME280;57491;42.694;23.314;2022-07-03T03:52:52;95534.88;;;22.21;65.07
70127;BME280;57491;42.694;23.314;2022-07-03T03:55:19;95540.13;;;22.33;64.75
70127;BME280;57491;42.694;23.314;2022-07-03T03:57:47;95539.84;;;22.35;64.80
70127;BME280;57491;42.694;23.314;2022-07-03T04:00:14;95527.97;;;22.20;64.66
70127;BME280;57491;42.694;23.314;2022-07-03T04:02:42;95525.59;;;22.19;65.17
70127;BME280;57491;42.694;23.314;2022-07-03T04:05:09;95526.13;;;22.21;64.81
70127;BME280;57491;42.694;23.314;2022-07-03T04:07:38;95542.09;;;22.43;64.53
70127;BME280;57491;42.694;23.314;2022-07-03T04:10:06;95515.47;;;22.33;64.18
70127;BME280;57491;42.694;23.314;2022-07-03T04:12:33;95533.69;;;22.46;63.79
70127;BME280;57491;42.694;23.314;2022-07-03T04:15:00;95536.16;;;22.52;63.74
70127;BME280;57491;42.694;23.314;2022-07-03T04:17:28;95537.59;;;22.43;63.81
70127;BME280;57491;42.694;23.314;2022-07-03T04:19:55;95537.38;;;22.45;64.06
70127;BME280;57491;42.694;23.314;2022-07-03T04:22:22;95527.50;;;22.40;64.18
70127;BME280;57491;42.694;23.314;2022-07-03T04:24:50;95532.56;;;22.42;63.95
70127;BME280;57491;42.694;23.314;2022-07-03T04:27:17;95532.88;;;22.62;63.85
70127;BME280;57491;42.694;23.314;2022-07-03T04:29:44;95515.78;;;22.69;63.33
70127;BME280;57491;42.694;23.314;2022-07-03T04:32:12;95531.97;;;22.90;62.88
70127;BME280;57491;42.694;23.314;2022-07-03T04:34:39;95510.25;;;22.93;62.36
70127;BME280;57491;42.694;23.314;2022-07-03T04:37:06;95532.81;;;23.12;61.82
70127;BME280;57491;42.694;23.314;2022-07-03T04:39:33;95527.94;;;23.26;61.63
70127;BME280;57491;42.694;23.314;2022-07-03T04:42:01;95528.31;;;23.34;61.19
70127;BME280;57491;42.694;23.314;2022-07-03T04:44:28;95527.06;;;23.42;61.02
70127;BME280;57491;42.694;23.314;2022-07-03T04:46:56;95535.47;;;23.55;60.40
70127;BME280;57491;42.694;23.314;2022-07-03T04:49:24;95531.28;;;23.60;60.59
70127;BME280;57491;42.694;23.314;2022-07-03T04:51:51;95518.56;;;23.62;60.25
70127;BME280;57491;42.694;23.314;2022-07-03T04:54:19;95542.69;;;23.82;60.08
70127;BME280;57491;42.694;23.314;2022-07-03T04:56:46;95519.28;;;23.79;59.30
70127;BME280;57491;42.694;23.314;2022-07-03T04:59:14;95537.16;;;23.88;58.92
70127;BME280;57491;42.694;23.314;2022-07-03T05:01:41;95528.97;;;23.90;59.49
70127;BME280;57491;42.694;23.314;2022-07-03T05:04:08;95523.25;;;24.03;58.99
70127;BME280;57491;42.694;23.314;2022-07-03T05:06:35;95526.31;;;24.17;58.58
70127;BME280;57491;42.694;23.314;2022-07-03T05:09:02;95516.88;;;24.31;57.50
70127;BME280;57491;42.694;23.314;2022-07-03T05:11:29;95525.97;;;24.40;57.11
70127;BME280;57491;42.694;23.314;2022-07-03T05:13:57;95528.38;;;24.41;57.55
70127;BME280;57491;42.694;23.314;2022-07-03T05:16:25;95530.13;;;24.63;57.11
70127;BME280;57491;42.694;23.314;2022-07-03T05:18:52;95531.22;;;24.67;56.74
70127;BME280;57491;42.694;23.314;2022-07-03T05:21:20;95520.06;;;24.70;56.35
70127;BME280;57491;42.694;23.314;2022-07-03T05:23:47;95523.66;;;24.85;56.49
70127;BME280;57491;42.694;23.314;2022-07-03T05:26:14;95486.06;;;24.77;56.02
70127;BME280;57491;42.694;23.314;2022-07-03T05:28:41;95523.56;;;25.12;55.28
70127;BME280;57491;42.694;23.314;2022-07-03T05:31:08;95527.28;;;25.11;55.27
70127;BME280;57491;42.694;23.314;2022-07-03T05:33:37;95532.00;;;25.04;55.41
70127;BME280;57491;42.694;23.314;2022-07-03T05:36:05;95530.13;;;25.00;55.46
70127;BME280;57491;42.694;23.314;2022-07-03T05:38:32;95497.09;;;24.96;55.85
70127;BME280;57491;42.694;23.314;2022-07-03T05:41:17;95532.66;;;25.31;54.24
70127;BME280;57491;42.694;23.314;2022-07-03T05:43:45;95531.88;;;25.31;53.95
70127;BME280;57491;42.694;23.314;2022-07-03T05:46:12;95541.06;;;25.55;53.72
70127;BME280;57491;42.694;23.314;2022-07-03T05:48:41;95532.31;;;25.70;52.88
70127;BME280;57491;42.694;23.314;2022-07-03T05:51:08;95530.72;;;25.69;52.64
70127;BME280;57491;42.694;23.314;2022-07-03T05:53:35;95538.25;;;25.97;52.97
70127;BME280;57491;42.694;23.314;2022-07-03T05:56:02;95542.25;;;26.10;52.60
70127;BME280;57491;42.694;23.314;2022-07-03T05:58:29;95539.09;;;26.23;51.72
70127;BME280;57491;42.694;23.314;2022-07-03T06:00:56;95537.25;;;26.29;51.54
70127;BME280;57491;42.694;23.314;2022-07-03T06:03:23;95539.38;;;26.32;51.58
70127;BME280;57491;42.694;23.314;2022-07-03T06:05:52;95535.38;;;26.39;51.59
70127;BME280;57491;42.694;23.314;2022-07-03T06:08:19;95537.50;;;26.52;51.26
70127;BME280;57491;42.694;23.314;2022-07-03T06:10:46;95533.50;;;26.40;50.77
70127;BME280;57491;42.694;23.314;2022-07-03T06:13:13;95534.84;;;26.37;50.65
70127;BME280;57491;42.694;23.314;2022-07-03T06:15:40;95535.91;;;26.31;50.89
70127;BME280;57491;42.694;23.314;2022-07-03T06:18:07;95510.03;;;26.11;51.16
70127;BME280;57491;42.694;23.314;2022-07-03T06:20:34;95535.41;;;26.34;51.19
70127;BME280;57491;42.694;23.314;2022-07-03T06:23:03;95541.78;;;26.48;50.43
70127;BME280;57491;42.694;23.314;2022-07-03T06:25:30;95540.72;;;26.64;49.46
70127;BME280;57491;42.694;23.314;2022-07-03T06:27:57;95537.25;;;26.69;49.61
70127;BME280;57491;42.694;23.314;2022-07-03T06:30:24;95539.91;;;26.94;49.19
70127;BME280;57491;42.694;23.314;2022-07-03T06:32:52;95538.75;;;27.21;48.30
70127;BME280;57491;42.694;23.314;2022-07-03T06:35:19;95538.41;;;27.47;47.91
70127;BME280;57491;42.694;23.314;2022-07-03T06:37:46;95544.53;;;27.63;46.78
70127;BME280;57491;42.694;23.314;2022-07-03T06:40:14;95544.47;;;27.73;46.54
70127;BME280;57491;42.694;23.314;2022-07-03T06:42:41;95538.41;;;27.52;47.10
70127;BME280;57491;42.694;23.314;2022-07-03T06:45:09;95536.50;;;27.63;46.82
70127;BME280;57491;42.694;23.314;2022-07-03T06:47:37;95536.16;;;27.75;46.69
70127;BME280;57491;42.694;23.314;2022-07-03T06:50:05;95533.63;;;27.99;46.25
70127;BME280;57491;42.694;23.314;2022-07-03T06:52:32;95534.69;;;28.03;45.82
70127;BME280;57491;42.694;23.314;2022-07-03T06:55:00;95538.13;;;28.13;45.57
70127;BME280;57491;42.694;23.314;2022-07-03T06:57:29;95532.94;;;28.27;45.85
70127;BME280;57491;42.694;23.314;2022-07-03T06:59:56;95532.78;;;28.47;45.29
70127;BME280;57491;42.694;23.314;2022-07-03T07:02:24;95531.13;;;28.51;44.71
70127;BME280;57491;42.694;23.314;2022-07-03T07:04:51;95524.88;;;28.66;44.83
70127;BME280;57491;42.694;23.314;2022-07-03T07:07:18;95526.81;;;28.89;44.27
70127;BME280;57491;42.694;23.314;2022-07-03T07:09:45;95529.16;;;28.96;43.22
70127;BME280;57491;42.694;23.314;2022-07-03T07:12:12;95528.44;;;29.14;42.90
70127;BME280;57491;42.694;23.314;2022-07-03T07:14:41;95518.47;;;29.19;42.45
70127;BME280;57491;42.694;23.314;2022-07-03T07:17:09;95516.50;;;29.30;42.17
70127;BME280;57491;42.694;23.314;2022-07-03T07:19:40;95521.66;;;29.21;42.44
70127;BME280;57491;42.694;23.314;2022-07-03T07:22:07;95510.94;;;28.98;42.99
70127;BME280;57491;42.694;23.314;2022-07-03T07:24:34;95514.31;;;29.08;42.94
70127;BME280;57491;42.694;23.314;2022-07-03T07:27:01;95518.19;;;29.21;42.24
70127;BME280;57491;42.694;23.314;2022-07-03T07:29:28;95516.94;;;29.61;41.13
70127;BME280;57491;42.694;23.314;2022-07-03T07:31:57;95513.59;;;29.93;40.46
70127;BME280;57491;42.694;23.314;2022-07-03T07:34:24;95506.09;;;30.08;39.77
70127;BME280;57491;42.694;23.314;2022-07-03T07:36:51;95507.59;;;30.33;39.69
70127;BME280;57491;42.694;23.314;2022-07-03T07:39:18;95509.22;;;30.34;39.79
70127;BME280;57491;42.694;23.314;2022-07-03T07:41:45;95509.69;;;30.36;40.32
70127;BME280;57491;42.694;23.314;2022-07-03T07:44:15;95514.84;;;30.33;39.79
70127;BME280;57491;42.694;23.314;2022-07-03T07:46:42;95503.97;;;30.43;39.08
70127;BME280;57491;42.694;23.314;2022-07-03T07:49:10;95508.72;;;30.65;38.86
70127;BME280;57491;42.694;23.314;2022-07-03T07:51:37;95508.41;;;30.34;39.05
70127;BME280;57491;42.694;23.314;2022-07-03T07:54:04;95511.91;;;30.16;39.51
70127;BME280;57491;42.694;23.314;2022-07-03T07:56:31;95510.09;;;30.48;38.35
70127;BME280;57491;42.694;23.314;2022-07-03T07:58:58;95506.53;;;30.67;38.70
70127;BME280;57491;42.694;23.314;2022-07-03T08:01:25;95502.81;;;30.95;37.78
70127;BME280;57491;42.694;23.314;2022-07-03T08:04:12;95500.03;;;31.00;37.80
70127;BME280;57491;42.694;23.314;2022-07-03T08:06:59;95503.00;;;30.98;37.78
70127;BME280;57491;42.694;23.314;2022-07-03T08:09:26;95502.41;;;30.88;38.11
70127;BME280;57491;42.694;23.314;2022-07-03T08:11:53;95491.63;;;30.61;38.64
70127;BME280;57491;42.694;23.314;2022-07-03T08:14:20;95494.44;;;30.69;38.91
70127;BME280;57491;42.694;23.314;2022-07-03T08:16:47;95489.84;;;30.70;38.71
70127;BME280;57491;42.694;23.314;2022-07-03T08:19:16;95482.50;;;30.62;38.66
70127;BME280;57491;42.694;23.314;2022-07-03T08:21:43;95479.28;;;30.60;39.29
70127;BME280;57491;42.694;23.314;2022-07-03T08:24:11;95494.19;;;30.52;38.81
70127;BME280;57491;42.694;23.314;2022-07-03T08:26:39;95485.81;;;30.53;39.11
70127;BME280;57491;42.694;23.314;2022-07-03T08:29:05;95489.16;;;30.78;38.88
70127;BME280;57491;42.694;23.314;2022-07-03T08:31:35;95493.75;;;30.77;39.16
70127;BME280;57491;42.694;23.314;2022-07-03T08:34:05;95491.88;;;30.91;37.21
70127;BME280;57491;42.694;23.314;2022-07-03T08:36:35;95500.47;;;31.48;36.34
70127;BME280;57491;42.694;23.314;2022-07-03T08:39:02;95481.78;;;31.43;36.32
70127;BME280;57491;42.694;23.314;2022-07-03T08:41:36;95502.66;;;31.73;36.13
70127;BME280;57491;42.694;23.314;2022-07-03T08:44:04;95473.47;;;32.03;34.95
70127;BME280;57491;42.694;23.314;2022-07-03T08:46:32;95496.69;;;32.35;34.56
70127;BME280;57491;42.694;23.314;2022-07-03T08:49:00;95477.44;;;32.41;33.40
70127;BME280;57491;42.694;23.314;2022-07-03T08:51:29;95468.81;;;31.59;34.31
70127;BME280;57491;42.694;23.314;2022-07-03T08:54:02;95468.47;;;31.87;34.25
70127;BME280;57491;42.694;23.314;2022-07-03T08:56:31;95475.84;;;32.40;33.69
70127;BME280;57491;42.694;23.314;2022-07-03T08:58:58;95472.28;;;32.53;33.86
70127;BME280;57491;42.694;23.314;2022-07-03T09:01:31;95473.63;;;33.17;31.98
70127;BME280;57491;42.694;23.314;2022-07-03T09:03:59;95478.16;;;33.65;30.98
70127;BME280;57491;42.694;23.314;2022-07-03T09:06:29;95473.47;;;34.14;29.90
70127;BME280;57491;42.694;23.314;2022-07-03T09:09:02;95452.97;;;33.78;30.63
70127;BME280;57491;42.694;23.314;2022-07-03T09:11:29;95455.06;;;34.07;29.49
70127;BME280;57491;42.694;23.314;2022-07-03T09:13:56;95468.41;;;34.38;29.50
70127;BME280;57491;42.694;23.314;2022-07-03T09:16:23;95476.50;;;34.38;28.95
70127;BME280;57491;42.694;23.314;2022-07-03T09:18:51;95460.59;;;34.36;29.11
70127;BME280;57491;42.694;23.314;2022-07-03T09:21:19;95466.38;;;34.18;29.50
70127;BME280;57491;42.694;23.314;2022-07-03T09:23:49;95456.50;;;34.39;29.08
70127;BME280;57491;42.694;23.314;2022-07-03T09:26:18;95459.28;;;34.60;29.06
70127;BME280;57491;42.694;23.314;2022-07-03T09:28:52;95464.38;;;34.78;28.32
70127;BME280;57491;42.694;23.314;2022-07-03T09:31:21;95463.84;;;34.93;27.74
70127;BME280;57491;42.694;23.314;2022-07-03T09:33:51;95464.13;;;35.01;27.39
70127;BME280;57491;42.694;23.314;2022-07-03T09:36:21;95456.25;;;34.78;27.32
70127;BME280;57491;42.694;23.314;2022-07-03T09:38:48;95464.88;;;34.55;28.48
70127;BME280;57491;42.694;23.314;2022-07-03T09:41:15;95453.84;;;34.85;28.38
70127;BME280;57491;42.694;23.314;2022-07-03T09:43:44;95453.38;;;35.30;27.71
70127;BME280;57491;42.694;23.314;2022-07-03T09:46:11;95459.81;;;35.17;28.27
70127;BME280;57491;42.694;23.314;2022-07-03T09:48:39;95442.03;;;33.92;29.70
70127;BME280;57491;42.694;23.314;2022-07-03T09:51:13;95477.44;;;34.42;28.36
70127;BME280;57491;42.694;23.314;2022-07-03T09:53:47;95458.72;;;33.85;29.75
70127;BME280;57491;42.694;23.314;2022-07-03T09:56:14;95461.53;;;33.15;31.11
70127;BME280;57491;42.694;23.314;2022-07-03T09:58:59;95441.31;;;33.26;31.41
70127;BME280;57491;42.694;23.314;2022-07-03T10:01:27;95439.47;;;33.61;31.05
70127;BME280;57491;42.694;23.314;2022-07-03T10:03:54;95452.13;;;33.52;31.26
70127;BME280;57491;42.694;23.314;2022-07-03T10:06:46;95438.38;;;34.14;30.86
70127;BME280;57491;42.694;23.314;2022-07-03T10:09:14;95425.25;;;34.21;29.58
70127;BME280;57491;42.694;23.314;2022-07-03T10:11:43;95438.53;;;34.43;29.31
70127;BME280;57491;42.694;23.314;2022-07-03T10:14:13;95443.19;;;34.89;29.00
70127;BME280;57491;42.694;23.314;2022-07-03T10:16:44;95429.00;;;35.01;28.18
70127;BME280;57491;42.694;23.314;2022-07-03T10:19:17;95426.47;;;34.96;28.59
70127;BME280;57491;42.694;23.314;2022-07-03T10:21:50;95429.31;;;34.44;28.82
70127;BME280;57491;42.694;23.314;2022-07-03T10:24:21;95426.06;;;34.85;27.55
70127;BME280;57491;42.694;23.314;2022-07-03T10:26:49;95423.91;;;35.58;26.57
70127;BME280;57491;42.694;23.314;2022-07-03T10:29:20;95420.38;;;36.07;25.10
70127;BME280;57491;42.694;23.314;2022-07-03T10:31:48;95401.31;;;36.04;25.23
70127;BME280;57491;42.694;23.314;2022-07-03T10:34:18;95402.25;;;36.74;23.71
70127;BME280;57491;42.694;23.314;2022-07-03T10:36:47;95404.19;;;37.46;23.03
70127;BME280;57491;42.694;23.314;2022-07-03T10:39:27;95395.03;;;37.26;22.86
70127;BME280;57491;42.694;23.314;2022-07-03T10:41:57;95393.31;;;37.46;21.64
70127;BME280;57491;42.694;23.314;2022-07-03T10:45:11;95399.88;;;37.57;21.03
70127;BME280;57491;42.694;23.314;2022-07-03T10:47:47;95404.75;;;37.27;21.00
70127;BME280;57491;42.694;23.314;2022-07-03T10:50:15;95414.72;;;34.91;22.42
70127;BME280;57491;42.694;23.314;2022-07-03T10:52:43;95406.13;;;34.52;23.01
70127;BME280;57491;42.694;23.314;2022-07-03T10:55:12;95403.28;;;34.39;23.88
70127;BME280;57491;42.694;23.314;2022-07-03T10:57:41;95395.03;;;34.44;24.66
70127;BME280;57491;42.694;23.314;2022-07-03T11:00:19;95385.41;;;34.73;23.58
70127;BME280;57491;42.694;23.314;2022-07-03T11:02:48;95371.00;;;34.98;22.14
70127;BME280;57491;42.694;23.314;2022-07-03T11:08:06;95363.75;;;34.81;22.54
70127;BME280;57491;42.694;23.314;2022-07-03T11:10:37;95375.84;;;35.43;21.83
70127;BME280;57491;42.694;23.314;2022-07-03T11:13:31;95364.75;;;35.98;21.34
70127;BME280;57491;42.694;23.314;2022-07-03T11:15:59;95376.66;;;36.50;21.53
70127;BME280;57491;42.694;23.314;2022-07-03T11:18:29;95376.28;;;36.97;20.74
70127;BME280;57491;42.694;23.314;2022-07-03T11:24:24;95364.53;;;37.29;20.94
70127;BME280;57491;42.694;23.314;2022-07-03T11:27:23;95357.31;;;36.97;21.34
70127;BME280;57491;42.694;23.314;2022-07-03T11:29:54;95373.31;;;37.38;21.00
70127;BME280;57491;42.694;23.314;2022-07-03T11:32:53;95361.53;;;36.37;22.58
70127;BME280;57491;42.694;23.314;2022-07-03T11:35:42;95356.69;;;35.27;23.45
70127;BME280;57491;42.694;23.314;2022-07-03T11:38:13;95365.66;;;35.40;23.13
70127;BME280;57491;42.694;23.314;2022-07-03T11:40:42;95352.03;;;35.07;24.40
70127;BME280;57491;42.694;23.314;2022-07-03T11:43:10;95362.06;;;35.06;24.10
70127;BME280;57491;42.694;23.314;2022-07-03T11:45:38;95342.06;;;34.69;24.93
70127;BME280;57491;42.694;23.314;2022-07-03T11:48:11;95351.44;;;34.72;24.51
70127;BME280;57491;42.694;23.314;2022-07-03T11:50:39;95334.97;;;34.85;24.45
70127;BME280;57491;42.694;23.314;2022-07-03T11:53:21;95339.22;;;34.57;24.51
70127;BME280;57491;42.694;23.314;2022-07-03T11:55:50;95338.88;;;34.12;24.87
70127;BME280;57491;42.694;23.314;2022-07-03T11:58:18;95333.63;;;34.16;25.21
70127;BME280;57491;42.694;23.314;2022-07-03T12:00:45;95333.81;;;34.02;25.51
70127;BME280;57491;42.694;23.314;2022-07-03T12:03:22;95324.44;;;33.13;26.68
70127;BME280;57491;42.694;23.314;2022-07-03T12:05:50;95304.75;;;32.87;27.55
70127;BME280;57491;42.694;23.314;2022-07-03T12:08:22;95340.84;;;32.86;28.67
70127;BME280;57491;42.694;23.314;2022-07-03T12:10:57;95332.97;;;32.59;28.50
70127;BME280;57491;42.694;23.314;2022-07-03T12:13:25;95303.13;;;32.69;28.16
70127;BME280;57491;42.694;23.314;2022-07-03T12:16:01;95318.75;;;33.24;27.21
70127;BME280;57491;42.694;23.314;2022-07-03T12:18:45;95320.50;;;33.19;27.66
70127;BME280;57491;42.694;23.314;2022-07-03T12:21:13;95318.28;;;33.22;26.49
70127;BME280;57491;42.694;23.314;2022-07-03T12:23:44;95317.34;;;33.35;25.96
70127;BME280;57491;42.694;23.314;2022-07-03T12:26:11;95315.44;;;33.18;26.57
70127;BME280;57491;42.694;23.314;2022-07-03T12:28:39;95291.97;;;33.36;26.74
70127;BME280;57491;42.694;23.314;2022-07-03T12:31:06;95308.63;;;33.72;26.88
70127;BME280;57491;42.694;23.314;2022-07-03T12:33:34;95304.34;;;33.45;27.05
70127;BME280;57491;42.694;23.314;2022-07-03T12:36:05;95313.22;;;33.54;27.39
70127;BME280;57491;42.694;23.314;2022-07-03T12:38:32;95303.72;;;33.48;27.38
70127;BME280;57491;42.694;23.314;2022-07-03T12:41:03;95307.84;;;33.54;27.28
70127;BME280;57491;42.694;23.314;2022-07-03T12:43:36;95305.75;;;33.34;27.36
70127;BME280;57491;42.694;23.314;2022-07-03T12:46:15;95302.91;;;33.39;27.73
70127;BME280;57491;42.694;23.314;2022-07-03T12:48:46;95303.22;;;33.38;27.43
70127;BME280;57491;42.694;23.314;2022-07-03T12:51:14;95290.59;;;32.73;28.52
70127;BME280;57491;42.694;23.314;2022-07-03T12:53:42;95291.38;;;32.34;29.30
70127;BME280;57491;42.694;23.314;2022-07-03T12:56:10;95276.66;;;32.31;28.44
70127;BME280;57491;42.694;23.314;2022-07-03T12:58:39;95296.09;;;32.59;28.53
70127;BME280;57491;42.694;23.314;2022-07-03T13:01:24;95297.28;;;33.01;27.91
70127;BME280;57491;42.694;23.314;2022-07-03T13:03:52;95293.09;;;33.17;27.92
70127;BME280;57491;42.694;23.314;2022-07-03T13:06:21;95307.81;;;33.20;27.82
70127;BME280;57491;42.694;23.314;2022-07-03T13:08:50;95299.81;;;32.81;28.25
70127;BME280;57491;42.694;23.314;2022-07-03T13:11:25;95295.88;;;32.47;29.12